createdAt,value
2018-06-12T00:00:35.484Z,89.00
2018-06-12T00:03:03.556Z,89.20
2018-06-12T00:05:31.626Z,89.20
2018-06-12T00:07:59.718Z,89.30
2018-06-12T00:10:27.913Z,89.50
2018-06-12T00:12:55.975Z,89.50
2018-06-12T00:15:24.127Z,89.60
2018-06-12T00:17:52.215Z,89.70
2018-06-12T00:20:20.336Z,90.10
2018-06-12T00:22:48.455Z,90.10
2018-06-12T00:25:16.554Z,90.40
2018-06-12T00:27:44.716Z,90.30
2018-06-12T00:30:12.819Z,90.30
2018-06-12T00:32:40.929Z,90.20
2018-06-12T00:37:36.927Z,90.20
2018-06-12T00:40:05.019Z,90.10
2018-06-12T00:42:33.087Z,90.10
2018-06-12T00:45:01.159Z,90.20
2018-06-12T00:47:29.238Z,90.30
2018-06-12T00:49:57.316Z,90.40
2018-06-12T00:52:25.435Z,90.40
2018-06-12T00:54:53.515Z,90.50
2018-06-12T00:57:21.638Z,90.50
2018-06-12T00:59:49.710Z,90.60
2018-06-12T01:02:17.817Z,90.60
2018-06-12T01:04:45.918Z,90.70
2018-06-12T01:07:13.998Z,90.70
2018-06-12T01:09:42.062Z,91.00
2018-06-12T01:12:10.212Z,91.00
2018-06-12T01:14:38.255Z,91.30
2018-06-12T01:17:06.366Z,91.10
2018-06-12T01:19:34.446Z,91.00
2018-06-12T01:22:02.514Z,90.90
2018-06-12T01:24:30.619Z,90.80
2018-06-12T01:26:58.690Z,90.70
2018-06-12T01:29:26.778Z,90.60
2018-06-12T01:31:54.877Z,90.70
2018-06-12T01:34:22.967Z,90.60
2018-06-12T01:36:51.054Z,90.60
2018-06-12T01:39:19.244Z,90.60
2018-06-12T01:41:47.315Z,90.60
2018-06-12T01:44:15.390Z,90.50
2018-06-12T01:46:43.480Z,90.40
2018-06-12T01:51:39.463Z,90.30
2018-06-12T01:54:07.520Z,90.20
2018-06-12T01:56:35.588Z,90.10
2018-06-12T01:59:03.693Z,90.20
2018-06-12T02:01:31.842Z,90.40
2018-06-12T02:04:00.203Z,90.30
2018-06-12T02:06:28.302Z,90.20
2018-06-12T02:08:56.478Z,90.10
2018-06-12T02:11:24.538Z,90.10
2018-06-12T02:13:52.653Z,90.00
2018-06-12T02:16:20.714Z,90.00
2018-06-12T02:18:48.877Z,89.90
2018-06-12T02:21:16.960Z,89.80
2018-06-12T02:23:45.059Z,89.70
2018-06-12T02:26:13.150Z,89.70
2018-06-12T02:28:41.222Z,89.70
2018-06-12T02:31:09.299Z,89.50
2018-06-12T02:33:37.361Z,89.50
2018-06-12T02:36:05.459Z,89.40
2018-06-12T02:38:33.556Z,89.30
2018-06-12T02:41:01.659Z,89.20
2018-06-12T02:43:29.727Z,89.20
2018-06-12T02:45:57.852Z,89.10
2018-06-12T02:48:25.947Z,88.90
2018-06-12T02:50:54.858Z,88.70
2018-06-12T02:53:22.958Z,88.50
2018-06-12T02:55:51.040Z,88.40
2018-06-12T02:58:19.152Z,88.30
2018-06-12T03:00:47.219Z,88.20
2018-06-12T03:03:15.385Z,88.20
2018-06-12T03:05:43.561Z,88.20
2018-06-12T03:08:11.658Z,88.20
2018-06-12T03:10:39.739Z,88.20
2018-06-12T03:13:07.805Z,88.30
2018-06-12T03:15:35.943Z,88.40
2018-06-12T03:18:04.140Z,88.60
2018-06-12T03:20:42.939Z,88.70
2018-06-12T03:23:11.059Z,88.70
2018-06-12T03:25:39.180Z,88.80
2018-06-12T03:28:07.364Z,88.80
2018-06-12T03:30:35.543Z,88.70
2018-06-12T03:33:03.667Z,88.80
2018-06-12T03:35:31.743Z,88.90
2018-06-12T03:37:59.830Z,88.90
2018-06-12T03:40:27.906Z,88.90
2018-06-12T03:42:56.018Z,88.90
2018-06-12T03:45:24.188Z,89.60
2018-06-12T03:47:52.235Z,89.50
2018-06-12T03:50:20.320Z,89.40
2018-06-12T03:52:48.375Z,89.30
2018-06-12T03:55:16.443Z,89.20
2018-06-12T03:57:44.593Z,89.10
2018-06-12T04:00:12.682Z,89.10
2018-06-12T04:02:40.779Z,89.50
2018-06-12T04:05:08.852Z,88.70
2018-06-12T04:07:36.946Z,88.60
2018-06-12T04:10:04.982Z,88.50
2018-06-12T04:12:33.238Z,89.10
2018-06-12T04:15:01.337Z,88.30
2018-06-12T04:17:29.386Z,88.20
2018-06-12T04:19:58.151Z,88.20
2018-06-12T04:22:26.209Z,88.00
2018-06-12T04:24:54.292Z,87.80
2018-06-12T04:27:22.370Z,87.80
2018-06-12T04:32:18.510Z,87.10
2018-06-12T04:34:46.610Z,87.50
2018-06-12T04:37:14.682Z,86.80
2018-06-12T04:39:42.858Z,87.40
2018-06-12T04:42:11.040Z,87.60
2018-06-12T04:44:39.106Z,87.50
2018-06-12T04:47:07.258Z,87.30
2018-06-12T04:49:35.318Z,87.30
2018-06-12T04:52:03.419Z,87.30
2018-06-12T04:54:31.541Z,87.20
2018-06-12T04:56:59.607Z,87.20
2018-06-12T04:59:27.811Z,87.10
2018-06-12T05:01:56.349Z,87.10
2018-06-12T05:04:24.598Z,87.20
2018-06-12T05:06:53.015Z,87.10
2018-06-12T05:09:21.139Z,86.90
2018-06-12T05:11:49.766Z,86.90
2018-06-12T05:14:17.873Z,86.70
2018-06-12T05:16:45.945Z,86.50
2018-06-12T05:19:14.046Z,86.30
2018-06-12T05:24:10.083Z,85.80
2018-06-12T05:26:39.386Z,85.50
2018-06-12T05:29:07.554Z,85.50
2018-06-12T05:31:35.630Z,85.20
2018-06-12T05:34:03.725Z,85.90
2018-06-12T05:36:31.800Z,85.10
2018-06-12T05:38:59.875Z,85.00
2018-06-12T05:41:27.950Z,85.00
2018-06-12T05:43:56.020Z,84.70
2018-06-12T05:46:24.094Z,84.40
2018-06-12T05:48:52.161Z,84.20
2018-06-12T05:51:20.218Z,83.90
2018-06-12T05:53:48.357Z,83.60
2018-06-12T05:56:16.471Z,83.20
2018-06-12T05:58:44.566Z,82.90
2018-06-12T06:01:12.743Z,82.80
2018-06-12T06:03:40.805Z,82.80
2018-06-12T06:06:08.895Z,82.70
2018-06-12T06:08:36.962Z,82.70
2018-06-12T06:11:05.122Z,82.50
2018-06-12T06:13:34.182Z,82.30
2018-06-12T06:16:02.248Z,82.20
2018-06-12T06:18:30.326Z,82.20
2018-06-12T06:23:26.367Z,81.90
2018-06-12T06:25:54.434Z,81.80
2018-06-12T06:28:22.591Z,81.50
2018-06-12T06:30:50.688Z,81.30
2018-06-12T06:33:18.796Z,81.00
2018-06-12T06:35:46.891Z,80.90
2018-06-12T06:38:14.976Z,80.80
2018-06-12T06:40:43.038Z,81.00
2018-06-12T06:43:11.114Z,80.30
2018-06-12T06:45:39.198Z,80.20
2018-06-12T06:48:07.255Z,80.00
2018-06-12T06:50:35.318Z,79.80
2018-06-12T06:53:03.443Z,79.80
2018-06-12T06:55:31.540Z,79.50
2018-06-12T06:57:59.717Z,79.20
2018-06-12T07:00:27.751Z,79.10
2018-06-12T07:02:55.815Z,78.90
2018-06-12T07:07:51.750Z,78.50
2018-06-12T07:10:19.864Z,78.10
2018-06-12T07:12:47.910Z,78.00
2018-06-12T07:15:15.987Z,78.10
2018-06-12T07:17:44.323Z,77.70
2018-06-12T07:20:17.410Z,77.60
2018-06-12T07:22:45.478Z,77.20
2018-06-12T07:25:13.534Z,77.30
2018-06-12T07:27:41.655Z,77.20
2018-06-12T07:30:09.769Z,77.20
2018-06-12T07:32:37.775Z,77.20
2018-06-12T07:35:05.842Z,77.50
2018-06-12T07:37:33.924Z,76.90
2018-06-12T07:40:01.993Z,76.70
2018-06-12T07:42:30.294Z,75.90
2018-06-12T07:44:58.387Z,76.30
2018-06-12T07:47:26.562Z,76.20
2018-06-12T07:49:54.632Z,75.90
2018-06-12T07:52:22.706Z,75.50
2018-06-12T07:54:50.790Z,75.10
2018-06-12T07:57:18.863Z,74.90
2018-06-12T07:59:46.944Z,74.90
2018-06-12T08:02:15.007Z,74.70
2018-06-12T08:04:43.106Z,74.50
2018-06-12T08:07:11.167Z,74.10
2018-06-12T08:09:39.283Z,73.60
2018-06-12T08:12:07.598Z,72.90
2018-06-12T08:14:35.707Z,72.50
2018-06-12T08:17:03.851Z,72.00
2018-06-12T08:19:31.933Z,71.70
2018-06-12T08:22:00.111Z,71.00
2018-06-12T08:24:28.167Z,70.50
2018-06-12T08:26:56.215Z,70.30
2018-06-12T08:29:24.270Z,70.30
2018-06-12T08:31:52.370Z,70.00
2018-06-12T08:34:20.434Z,68.90
2018-06-12T08:39:16.413Z,68.20
2018-06-12T08:41:44.521Z,67.80
2018-06-12T08:44:14.230Z,67.50
2018-06-12T08:46:42.417Z,66.50
2018-06-12T08:49:10.474Z,67.10
2018-06-12T08:51:38.613Z,67.30
2018-06-12T08:54:06.752Z,67.10
2018-06-12T08:56:34.823Z,67.00
2018-06-12T08:59:02.933Z,66.80
2018-06-12T09:01:31.109Z,66.60
2018-06-12T09:03:59.161Z,66.40
2018-06-12T09:06:27.272Z,66.70
2018-06-12T09:08:55.356Z,66.70
2018-06-12T09:11:25.704Z,66.70
2018-06-12T09:13:54.006Z,66.60
2018-06-12T09:16:22.287Z,66.70
2018-06-12T09:18:50.443Z,66.90
2018-06-12T09:21:18.544Z,67.10
2018-06-12T09:23:46.610Z,67.10
2018-06-12T09:26:14.668Z,66.90
2018-06-12T09:28:42.726Z,66.90
2018-06-12T09:31:10.794Z,66.60
2018-06-12T09:33:38.897Z,66.70
2018-06-12T09:36:12.666Z,66.60
2018-06-12T09:38:40.778Z,67.30
2018-06-12T09:41:08.862Z,66.50
2018-06-12T09:43:36.922Z,66.30
2018-06-12T09:46:05.042Z,65.80
2018-06-12T09:48:33.150Z,66.00
2018-06-12T09:51:01.203Z,65.80
2018-06-12T09:55:57.279Z,66.30
2018-06-12T09:58:25.322Z,66.40
2018-06-12T10:03:26.906Z,66.10
2018-06-12T10:05:54.975Z,65.50
2018-06-12T10:08:23.022Z,65.10
2018-06-12T10:10:51.080Z,64.90
2018-06-12T10:13:24.717Z,64.80
2018-06-12T10:15:52.795Z,64.20
2018-06-12T10:18:20.901Z,63.70
2018-06-12T10:20:48.963Z,63.80
2018-06-12T10:23:17.054Z,63.80
2018-06-12T10:25:45.126Z,64.00
2018-06-12T10:28:13.231Z,64.20
2018-06-12T10:30:41.306Z,64.60
2018-06-12T10:33:09.382Z,64.80
2018-06-12T10:35:37.464Z,65.50
2018-06-12T10:38:05.614Z,65.90
2018-06-12T10:40:34.038Z,66.20
2018-06-12T10:43:02.080Z,66.40
2018-06-12T10:47:58.067Z,66.70
2018-06-12T10:50:26.139Z,67.00
2018-06-12T10:52:54.211Z,67.20
2018-06-12T10:55:22.299Z,67.60
2018-06-12T10:57:50.377Z,67.40
2018-06-12T11:00:18.434Z,67.40
2018-06-12T11:02:46.567Z,67.10
2018-06-12T11:05:14.631Z,66.90
2018-06-12T11:07:42.828Z,66.80
2018-06-12T11:10:10.893Z,66.60
2018-06-12T11:12:38.973Z,66.20
2018-06-12T11:15:07.011Z,65.60
2018-06-12T11:17:35.139Z,65.20
2018-06-12T11:20:03.210Z,65.20
2018-06-12T11:22:31.313Z,64.90
2018-06-12T11:24:59.431Z,64.60
2018-06-12T11:27:27.479Z,65.30
2018-06-12T11:29:55.559Z,64.50
2018-06-12T11:32:23.634Z,64.20
2018-06-12T11:34:51.718Z,64.10
2018-06-12T11:37:19.820Z,64.20
2018-06-12T11:39:47.934Z,64.20
2018-06-12T11:42:16.025Z,64.30
2018-06-12T11:44:44.081Z,64.40
2018-06-12T11:47:12.148Z,65.00
2018-06-12T11:49:40.217Z,66.50
2018-06-12T11:52:08.323Z,66.40
2018-06-12T11:54:36.358Z,66.30
2018-06-12T11:57:04.491Z,66.50
2018-06-12T11:59:32.627Z,66.60
2018-06-12T12:02:00.705Z,66.80
2018-06-12T12:04:28.782Z,67.10
2018-06-12T12:06:56.853Z,67.30
2018-06-12T12:09:25.031Z,67.30
2018-06-12T12:11:53.067Z,67.70
2018-06-12T12:14:21.150Z,68.30
2018-06-12T12:16:49.214Z,68.60
2018-06-12T12:19:17.282Z,68.70
2018-06-12T12:21:45.365Z,68.80
2018-06-12T12:24:13.452Z,68.80
2018-06-12T12:26:41.511Z,68.90
2018-06-12T12:29:09.583Z,69.30
2018-06-12T12:31:37.651Z,69.50
2018-06-12T12:34:05.763Z,69.50
2018-06-12T12:36:33.894Z,69.40
2018-06-12T12:39:01.972Z,69.50
2018-06-12T12:41:30.047Z,69.50
2018-06-12T12:43:58.100Z,69.60
2018-06-12T12:46:26.233Z,69.40
2018-06-12T12:48:54.318Z,69.20
2018-06-12T12:51:22.383Z,69.10
2018-06-12T12:53:50.507Z,68.50
2018-06-12T12:56:18.646Z,68.30
2018-06-12T12:58:46.714Z,68.50
2018-06-12T13:01:14.777Z,68.30
2018-06-12T13:03:42.909Z,68.70
2018-06-12T13:06:10.971Z,69.10
2018-06-12T13:08:39.059Z,69.30
2018-06-12T13:11:07.165Z,69.60
2018-06-12T13:13:35.241Z,70.40
2018-06-12T13:16:03.505Z,71.40
2018-06-12T13:18:31.603Z,72.60
2018-06-12T13:20:59.720Z,73.30
2018-06-12T13:23:27.784Z,73.90
2018-06-12T13:25:55.842Z,74.20
2018-06-12T13:28:24.041Z,74.50
2018-06-12T13:30:52.090Z,74.80
2018-06-12T13:33:20.183Z,75.10
2018-06-12T13:35:48.254Z,75.20
2018-06-12T13:38:16.389Z,75.30
2018-06-12T13:40:44.438Z,75.40
2018-06-12T13:43:12.611Z,75.60
2018-06-12T13:45:40.749Z,75.30
2018-06-12T13:48:08.813Z,75.20
2018-06-12T13:50:36.910Z,74.90
2018-06-12T13:53:05.036Z,74.50
2018-06-12T13:55:33.115Z,74.20
2018-06-12T13:58:01.184Z,73.60
2018-06-12T14:00:29.280Z,73.60
2018-06-12T14:02:57.378Z,73.70
2018-06-12T14:05:25.499Z,73.80
2018-06-12T14:07:53.586Z,73.90
2018-06-12T14:10:21.663Z,74.20
2018-06-12T14:12:49.736Z,74.60
2018-06-12T14:15:17.804Z,74.60
2018-06-12T14:17:45.990Z,74.90
2018-06-12T14:20:14.052Z,75.10
2018-06-12T14:22:42.127Z,75.20
2018-06-12T14:25:10.210Z,75.30
2018-06-12T14:27:38.376Z,75.10
2018-06-12T14:30:06.451Z,74.90
2018-06-12T14:32:34.522Z,74.80
2018-06-12T14:35:02.703Z,74.80
2018-06-12T14:37:30.751Z,75.70
2018-06-12T14:39:58.952Z,76.10
2018-06-12T14:42:26.995Z,75.10
2018-06-12T14:44:55.099Z,74.90
2018-06-12T14:47:23.179Z,74.80
2018-06-12T14:49:51.293Z,75.00
2018-06-12T14:52:19.401Z,74.80
2018-06-12T14:54:47.473Z,74.80
2018-06-12T14:57:15.545Z,75.00
2018-06-12T14:59:43.619Z,75.20
2018-06-12T15:02:11.747Z,75.10
2018-06-12T15:04:39.881Z,75.30
2018-06-12T15:07:07.996Z,76.10
2018-06-12T15:09:36.083Z,75.40
2018-06-12T15:12:04.191Z,75.80
2018-06-12T15:14:32.267Z,75.40
2018-06-12T15:17:00.355Z,75.30
2018-06-12T15:19:28.497Z,75.20
2018-06-12T15:21:56.553Z,75.20
2018-06-12T15:24:24.642Z,75.80
2018-06-12T15:26:52.718Z,78.30
2018-06-12T15:29:20.817Z,79.10
2018-06-12T15:31:48.875Z,81.10
2018-06-12T15:34:16.992Z,81.30
2018-06-12T15:36:45.134Z,81.70
2018-06-12T15:39:13.206Z,82.00
2018-06-12T15:41:41.267Z,82.10
2018-06-12T15:44:09.356Z,82.30
2018-06-12T15:46:37.420Z,82.40
2018-06-12T15:49:05.562Z,82.50
2018-06-12T15:51:33.632Z,82.50
2018-06-12T15:54:01.711Z,82.60
2018-06-12T15:56:29.791Z,83.00
2018-06-12T15:58:57.875Z,83.20
2018-06-12T16:01:25.938Z,83.20
2018-06-12T16:03:54.003Z,83.50
2018-06-12T16:06:22.075Z,83.50
2018-06-12T16:08:50.181Z,83.40
2018-06-12T16:11:18.326Z,83.20
2018-06-12T16:13:46.416Z,83.40
2018-06-12T16:16:14.505Z,83.10
2018-06-12T16:18:42.559Z,83.20
2018-06-12T16:21:10.698Z,82.90
2018-06-12T16:23:38.742Z,82.70
2018-06-12T16:26:06.854Z,82.50
2018-06-12T16:28:34.912Z,82.40
2018-06-12T16:31:02.980Z,82.10
2018-06-12T16:33:31.066Z,81.40
2018-06-12T16:35:59.179Z,80.50
2018-06-12T16:38:27.267Z,79.50
2018-06-12T16:40:55.384Z,79.20
2018-06-12T16:43:23.538Z,79.00
2018-06-12T16:45:51.643Z,79.30
2018-06-12T16:48:19.723Z,79.50
2018-06-12T16:50:47.879Z,79.40
2018-06-12T16:53:15.962Z,79.00
2018-06-12T16:55:44.039Z,78.70
2018-06-12T16:58:12.106Z,78.30
2018-06-12T17:00:40.184Z,78.10
2018-06-12T17:03:08.238Z,78.10
2018-06-12T17:05:36.314Z,77.90
2018-06-12T17:08:04.726Z,77.80
2018-06-12T17:10:33.065Z,77.70
2018-06-12T17:13:01.189Z,77.60
2018-06-12T17:15:29.295Z,77.60
2018-06-12T17:17:57.379Z,77.70
2018-06-12T17:20:25.431Z,77.50
2018-06-12T17:22:53.697Z,77.40
2018-06-12T17:25:21.791Z,77.40
2018-06-12T17:27:49.874Z,77.50
2018-06-12T17:30:17.983Z,77.50
2018-06-12T17:32:46.085Z,77.30
2018-06-12T17:35:15.355Z,77.20
2018-06-12T17:40:11.498Z,76.30
2018-06-12T17:42:39.623Z,75.80
2018-06-12T17:45:07.683Z,75.20
2018-06-12T17:47:35.881Z,74.60
2018-06-12T17:50:03.926Z,74.20
2018-06-12T17:52:32.428Z,73.70
2018-06-12T17:55:00.601Z,73.60
2018-06-12T17:57:28.684Z,73.60
2018-06-12T18:00:03.487Z,73.80
2018-06-12T18:02:31.574Z,74.00
2018-06-12T18:04:59.674Z,74.10
2018-06-12T18:07:27.772Z,73.70
2018-06-12T18:09:55.832Z,73.20
2018-06-12T18:12:23.968Z,74.30
2018-06-12T18:14:52.040Z,73.40
2018-06-12T18:17:20.104Z,73.40
2018-06-12T18:19:53.642Z,73.30
2018-06-12T18:22:21.780Z,73.30
2018-06-12T18:24:49.945Z,73.20
2018-06-12T18:27:18.027Z,72.90
2018-06-12T18:29:46.079Z,72.90
2018-06-12T18:32:14.168Z,73.00
2018-06-12T18:34:42.299Z,73.00
2018-06-12T18:37:10.418Z,72.90
2018-06-12T18:39:38.509Z,73.10
2018-06-12T18:42:06.595Z,73.00
2018-06-12T18:44:34.729Z,72.90
2018-06-12T18:47:02.822Z,72.90
2018-06-12T18:49:31.044Z,73.00
2018-06-12T18:51:59.098Z,73.20
2018-06-12T18:54:27.324Z,73.40
2018-06-12T18:56:55.405Z,73.50
2018-06-12T18:59:23.537Z,73.50
2018-06-12T19:04:19.510Z,73.60
2018-06-12T19:06:47.677Z,73.40
2018-06-12T19:09:15.697Z,73.20
2018-06-12T19:11:43.736Z,73.30
2018-06-12T19:14:11.882Z,73.20
2018-06-12T19:16:40.020Z,73.20
2018-06-12T19:19:08.175Z,73.30
2018-06-12T19:21:36.282Z,73.90
2018-06-12T19:24:04.385Z,73.50
2018-06-12T19:26:33.411Z,73.60
2018-06-12T19:29:01.555Z,73.70
2018-06-12T19:31:29.610Z,73.70
2018-06-12T19:33:57.667Z,73.80
2018-06-12T19:36:25.771Z,73.90
2018-06-12T19:38:53.840Z,73.90
2018-06-12T19:41:22.607Z,73.80
2018-06-12T19:43:50.675Z,73.60
2018-06-12T19:46:18.751Z,73.70
2018-06-12T19:48:46.848Z,73.60
2018-06-12T19:51:15.061Z,73.40
2018-06-12T19:53:43.215Z,74.10
2018-06-12T19:56:11.278Z,73.50
2018-06-12T19:58:39.431Z,73.50
2018-06-12T20:01:07.530Z,73.80
2018-06-12T20:03:35.599Z,73.90
2018-06-12T20:06:03.695Z,74.00
2018-06-12T20:08:31.814Z,74.10
2018-06-12T20:10:59.915Z,74.10
2018-06-12T20:13:28.176Z,74.20
2018-06-12T20:15:56.320Z,74.30
2018-06-12T20:20:52.791Z,74.70
2018-06-12T20:23:20.896Z,74.80
2018-06-12T20:25:48.976Z,75.10
2018-06-12T20:28:17.220Z,75.20
2018-06-12T20:30:45.307Z,76.10
2018-06-12T20:33:13.453Z,75.70
2018-06-12T20:38:09.423Z,76.10
2018-06-12T20:40:39.444Z,76.30
2018-06-12T20:43:08.169Z,76.30
2018-06-12T20:45:36.302Z,76.50
2018-06-12T20:48:04.548Z,77.40
2018-06-12T20:50:32.674Z,76.70
2018-06-12T20:53:00.862Z,76.70
2018-06-12T20:55:29.018Z,77.10
2018-06-12T20:57:57.202Z,77.00
2018-06-12T21:00:25.327Z,77.00
2018-06-12T21:02:53.423Z,77.80
2018-06-12T21:05:21.488Z,77.10
2018-06-12T21:07:49.590Z,77.20
2018-06-12T21:10:17.656Z,77.30
2018-06-12T21:12:45.843Z,77.40
2018-06-12T21:15:13.979Z,77.40
2018-06-12T21:17:42.020Z,77.60
2018-06-12T21:20:10.180Z,77.70
2018-06-12T21:25:06.156Z,78.80
2018-06-12T21:27:34.244Z,77.90
2018-06-12T21:30:02.544Z,77.90
2018-06-12T21:32:30.607Z,78.00
2018-06-12T21:34:59.468Z,78.10
2018-06-12T21:37:27.566Z,78.40
2018-06-12T21:39:55.639Z,78.70
2018-06-12T21:42:23.908Z,79.50
2018-06-12T21:44:53.001Z,80.40
2018-06-12T21:47:21.126Z,81.30
2018-06-12T21:49:49.245Z,82.00
2018-06-12T21:52:17.402Z,83.30
2018-06-12T21:54:45.470Z,84.20
2018-06-12T21:57:13.930Z,86.90
2018-06-12T21:59:42.824Z,86.80
2018-06-12T22:02:10.859Z,87.00
2018-06-12T22:04:38.996Z,87.40
2018-06-12T22:07:07.075Z,87.70
2018-06-12T22:09:35.155Z,88.30
2018-06-12T22:12:03.250Z,88.80
2018-06-12T22:14:31.301Z,89.20
2018-06-12T22:16:59.499Z,89.60
2018-06-12T22:19:27.602Z,90.00
2018-06-12T22:21:55.778Z,90.40
2018-06-12T22:24:25.887Z,90.60
2018-06-12T22:26:54.014Z,90.80
2018-06-12T22:29:22.046Z,91.00
2018-06-12T22:31:50.119Z,91.30
2018-06-12T22:34:18.236Z,91.60
2018-06-12T22:36:46.325Z,91.80
2018-06-12T22:39:14.392Z,91.90
2018-06-12T22:41:42.501Z,92.20
2018-06-12T22:44:10.699Z,92.40
2018-06-12T22:46:38.770Z,92.50
2018-06-12T22:49:06.842Z,92.60
2018-06-12T22:51:35.038Z,93.30
2018-06-12T22:54:03.172Z,93.30
2018-06-12T22:56:31.230Z,94.10
2018-06-12T22:58:59.304Z,93.90
2018-06-12T23:01:27.362Z,93.80
2018-06-12T23:03:55.465Z,93.80
2018-06-12T23:06:23.579Z,93.80
2018-06-12T23:08:51.639Z,93.80
2018-06-12T23:11:19.754Z,93.70
2018-06-12T23:13:47.818Z,93.70
2018-06-12T23:16:15.880Z,93.70
2018-06-12T23:18:43.971Z,93.90
2018-06-12T23:21:23.539Z,93.90
2018-06-12T23:23:51.728Z,94.10
2018-06-12T23:26:19.786Z,94.10
2018-06-12T23:28:47.863Z,94.10
2018-06-12T23:31:15.938Z,94.10
2018-06-12T23:33:44.010Z,94.10
2018-06-12T23:36:12.104Z,94.30
2018-06-12T23:38:40.142Z,94.40
2018-06-12T23:41:08.234Z,94.50
2018-06-12T23:43:36.323Z,94.60
2018-06-12T23:46:04.422Z,94.60
2018-06-12T23:48:32.511Z,94.70
2018-06-12T23:51:00.633Z,94.80
2018-06-12T23:53:28.715Z,95.40
2018-06-12T23:55:56.804Z,95.40
2018-06-12T23:58:24.967Z,95.70
